createdAt,value
2023-03-15T00:02:55.620Z,11.10
2023-03-15T00:07:58.945Z,11.60
2023-03-15T00:13:01.469Z,11.50
2023-03-15T00:18:04.089Z,11.80
2023-03-15T00:23:06.685Z,11.80
2023-03-15T00:28:09.333Z,11.60
2023-03-15T00:33:13.999Z,11.10
2023-03-15T00:38:16.598Z,11.30
2023-03-15T00:43:19.204Z,11.20
2023-03-15T00:48:21.795Z,11.60
2023-03-15T00:53:24.280Z,12.10
2023-03-15T00:58:27.613Z,11.70
2023-03-15T01:03:30.151Z,10.80
2023-03-15T01:08:32.744Z,11.70
2023-03-15T01:13:36.151Z,11.20
2023-03-15T01:18:39.138Z,11.20
2023-03-15T01:23:42.305Z,10.70
2023-03-15T01:28:45.205Z,10.90
2023-03-15T01:33:48.052Z,10.90
2023-03-15T01:38:51.159Z,11.00
2023-03-15T01:43:58.556Z,11.00
2023-03-15T01:49:25.046Z,10.30
2023-03-15T01:55:06.207Z,10.80
2023-03-15T02:00:18.583Z,11.40
2023-03-15T02:05:36.944Z,11.20
2023-03-15T02:10:49.545Z,11.50
2023-03-15T02:15:53.987Z,10.60
2023-03-15T02:21:22.456Z,10.50
2023-03-15T02:26:34.889Z,10.60
2023-03-15T02:31:38.333Z,10.60
2023-03-15T02:36:41.248Z,10.30
2023-03-15T02:41:48.945Z,9.80
2023-03-15T02:46:53.661Z,10.40
2023-03-15T02:51:57.019Z,9.40
2023-03-15T02:56:59.685Z,9.70
2023-03-15T03:02:02.794Z,9.90
2023-03-15T03:07:06.234Z,9.10
2023-03-15T03:12:18.219Z,9.40
2023-03-15T03:17:20.889Z,9.80
2023-03-15T03:22:24.701Z,10.50
2023-03-15T03:27:27.232Z,9.90
2023-03-15T03:32:30.248Z,9.60
2023-03-15T03:37:35.947Z,9.90
2023-03-15T03:42:47.379Z,10.00
2023-03-15T03:47:53.346Z,9.30
2023-03-15T03:52:56.117Z,8.70
2023-03-15T03:58:03.537Z,9.10
2023-03-15T04:03:16.775Z,9.50
2023-03-15T04:08:25.586Z,9.50
2023-03-15T04:13:28.947Z,9.40
2023-03-15T04:18:33.880Z,9.20
2023-03-15T04:23:37.662Z,9.30
2023-03-15T04:28:51.156Z,9.50
2023-03-15T04:34:09.112Z,9.00
2023-03-15T04:39:30.910Z,9.30
2023-03-15T04:44:45.944Z,8.90
2023-03-15T04:50:07.380Z,9.80
2023-03-15T04:55:32.400Z,9.60
2023-03-15T05:00:53.334Z,9.50
2023-03-15T05:06:22.709Z,9.70
2023-03-15T05:11:43.790Z,9.40
2023-03-15T05:17:04.902Z,9.90
2023-03-15T05:22:28.410Z,10.10
2023-03-15T05:27:52.901Z,10.00
2023-03-15T05:33:21.253Z,9.70
2023-03-15T05:38:46.295Z,10.10
2023-03-15T05:44:11.546Z,10.40
2023-03-15T05:49:36.604Z,10.10
2023-03-15T05:54:54.292Z,9.70
2023-03-15T06:00:20.756Z,9.90
2023-03-15T06:05:27.734Z,10.80
2023-03-15T06:10:32.012Z,10.40
2023-03-15T06:15:40.225Z,9.80
2023-03-15T06:20:44.674Z,9.80
2023-03-15T06:25:50.456Z,9.70
2023-03-15T06:30:54.913Z,9.90
2023-03-15T06:36:04.306Z,10.30
2023-03-15T06:41:07.731Z,10.80
2023-03-15T06:46:12.104Z,10.50
2023-03-15T06:51:14.785Z,11.30
2023-03-15T06:56:17.561Z,10.40
2023-03-15T07:01:20.168Z,11.10
2023-03-15T07:06:23.023Z,10.90
2023-03-15T07:11:25.631Z,11.50
2023-03-15T07:16:28.270Z,11.50
2023-03-15T07:21:30.853Z,11.50
2023-03-15T07:26:33.506Z,10.90
2023-03-15T07:31:36.032Z,10.90
2023-03-15T07:36:38.692Z,11.50
2023-03-15T07:41:41.236Z,11.70
2023-03-15T07:46:56.157Z,11.90
2023-03-15T07:51:58.804Z,12.50
2023-03-15T07:57:01.715Z,11.40
2023-03-15T08:02:04.702Z,11.00
2023-03-15T08:07:07.723Z,11.50
2023-03-15T08:12:10.628Z,12.40
2023-03-15T08:17:16.257Z,11.80
2023-03-15T08:22:19.169Z,11.60
2023-03-15T08:27:21.788Z,11.40
2023-03-15T08:32:24.383Z,11.00
2023-03-15T08:37:27.092Z,11.10
2023-03-15T08:42:29.666Z,11.40
2023-03-15T08:47:32.223Z,11.50
2023-03-15T08:52:35.185Z,11.40
2023-03-15T08:57:37.761Z,11.50
2023-03-15T09:02:40.382Z,11.50
2023-03-15T09:07:43.694Z,12.20
2023-03-15T09:12:49.258Z,10.20
2023-03-15T09:17:52.036Z,11.20
2023-03-15T09:22:56.739Z,10.60
2023-03-15T09:27:59.323Z,10.90
2023-03-15T09:33:02.007Z,11.50
2023-03-15T09:38:04.547Z,11.10
2023-03-15T09:43:07.041Z,11.90
2023-03-15T09:48:28.045Z,11.70
2023-03-15T09:54:06.030Z,12.40
2023-03-15T09:59:10.476Z,13.20
2023-03-15T10:04:16.870Z,12.50
2023-03-15T10:09:23.029Z,12.50
2023-03-15T10:14:28.403Z,11.00
2023-03-15T10:19:46.719Z,12.20
2023-03-15T10:24:59.345Z,11.30
2023-03-15T10:30:13.192Z,12.20
2023-03-15T10:35:18.285Z,12.30
2023-03-15T10:40:59.935Z,12.50
2023-03-15T10:46:08.647Z,12.90
2023-03-15T10:51:23.499Z,11.50
2023-03-15T10:56:32.367Z,10.60
2023-03-15T11:01:35.014Z,11.50
2023-03-15T11:06:44.534Z,11.50
2023-03-15T11:12:00.050Z,11.40
2023-03-15T11:17:05.448Z,9.60
2023-03-15T11:22:12.723Z,8.80
2023-03-15T11:27:19.102Z,9.40
2023-03-15T11:32:25.137Z,9.90
2023-03-15T11:38:03.135Z,11.50
2023-03-15T11:43:51.976Z,12.20
2023-03-15T11:49:01.390Z,11.80
2023-03-15T11:54:17.358Z,12.60
2023-03-15T11:59:33.751Z,12.20
2023-03-15T12:04:36.448Z,12.70
2023-03-15T12:09:45.870Z,11.20
2023-03-15T12:14:48.494Z,9.80
2023-03-15T12:20:20.225Z,8.90
2023-03-15T12:25:33.863Z,8.90
2023-03-15T12:30:57.117Z,10.70
2023-03-15T12:36:16.397Z,11.50
2023-03-15T12:41:50.080Z,12.80
2023-03-15T12:46:52.631Z,12.30
2023-03-15T12:51:59.826Z,12.10
2023-03-15T12:57:05.050Z,12.80
2023-03-15T13:02:41.721Z,13.10
2023-03-15T13:07:58.595Z,13.20
2023-03-15T13:13:08.344Z,13.30
2023-03-15T13:18:35.028Z,13.40
2023-03-15T13:23:37.867Z,10.00
2023-03-15T13:28:58.386Z,7.80
2023-03-15T13:34:24.458Z,6.70
2023-03-15T13:39:30.630Z,5.80
2023-03-15T13:44:33.951Z,5.60
2023-03-15T13:49:36.453Z,5.60
2023-03-15T13:54:40.234Z,5.00
2023-03-15T14:00:02.047Z,4.90
2023-03-15T14:05:11.096Z,4.90
2023-03-15T14:10:34.639Z,5.50
2023-03-15T14:15:43.094Z,5.50
2023-03-15T14:20:47.976Z,6.40
2023-03-15T14:25:55.756Z,5.70
2023-03-15T14:30:59.861Z,6.10
2023-03-15T14:36:05.582Z,7.80
2023-03-15T14:41:33.313Z,9.60
2023-03-15T14:46:36.411Z,10.10
2023-03-15T14:51:38.907Z,9.30
2023-03-15T14:56:44.373Z,9.80
2023-03-15T15:01:51.709Z,9.80
2023-03-15T15:06:56.009Z,10.70
2023-03-15T15:11:58.698Z,10.50
2023-03-15T15:17:01.312Z,10.50
2023-03-15T15:22:04.080Z,9.50
2023-03-15T15:27:09.597Z,9.50
2023-03-15T15:32:12.058Z,9.10
2023-03-15T15:37:15.524Z,10.00
2023-03-15T15:42:18.240Z,9.20
2023-03-15T15:47:20.964Z,10.10
2023-03-15T15:52:23.430Z,9.90
2023-03-15T15:57:26.651Z,9.00
2023-03-15T16:02:29.428Z,10.40
2023-03-15T16:07:32.052Z,9.70
2023-03-15T16:12:35.695Z,8.30
2023-03-15T16:17:38.829Z,8.40
2023-03-15T16:22:45.564Z,9.60
2023-03-15T16:27:48.139Z,9.00
2023-03-15T16:32:55.231Z,8.50
2023-03-15T16:37:59.035Z,8.00
2023-03-15T16:43:01.768Z,7.90
2023-03-15T16:48:04.782Z,7.70
2023-03-15T16:53:10.151Z,7.50
2023-03-15T16:58:21.949Z,7.20
2023-03-15T17:03:25.791Z,5.40
2023-03-15T17:08:28.526Z,5.40
2023-03-15T17:13:32.910Z,5.10
2023-03-15T17:18:35.695Z,3.80
2023-03-15T17:23:38.399Z,4.50
2023-03-15T17:34:02.561Z,5.60
2023-03-15T17:39:09.772Z,7.40
2023-03-15T17:44:12.343Z,6.40
2023-03-15T17:49:16.325Z,5.60
2023-03-15T17:54:20.821Z,5.00
2023-03-15T17:59:23.487Z,4.70
2023-03-15T18:04:26.083Z,4.40
2023-03-15T18:09:28.846Z,3.80
2023-03-15T18:14:37.271Z,3.30
2023-03-15T18:19:39.923Z,2.50
2023-03-15T18:24:42.470Z,1.90
2023-03-15T18:29:44.966Z,1.60
2023-03-15T18:34:47.552Z,1.40
2023-03-15T18:39:50.195Z,1.20
2023-03-15T18:44:52.677Z,1.10
2023-03-15T18:50:00.999Z,1.00
2023-03-15T18:55:08.653Z,1.20
2023-03-15T19:00:14.395Z,1.50
2023-03-15T19:05:17.717Z,2.00
2023-03-15T19:10:21.660Z,1.80
2023-03-15T19:15:24.389Z,1.70
2023-03-15T19:20:26.995Z,1.40
2023-03-15T19:25:29.590Z,1.00
2023-03-15T19:30:32.681Z,3.30
2023-03-15T19:35:35.508Z,3.50
2023-03-15T19:40:38.874Z,2.60
2023-03-15T19:45:41.819Z,2.40
2023-03-15T19:50:44.518Z,1.40
2023-03-15T19:55:47.091Z,1.70
2023-03-15T20:00:50.514Z,2.10
2023-03-15T20:05:53.093Z,2.00
2023-03-15T20:11:04.033Z,1.80
2023-03-15T20:16:07.394Z,1.50
2023-03-15T20:21:10.303Z,1.30
2023-03-15T20:26:15.796Z,1.00
2023-03-15T20:31:19.529Z,0.60
2023-03-15T20:36:22.399Z,0.40
2023-03-15T20:41:24.923Z,0.40
2023-03-15T20:46:27.677Z,0.30
2023-03-15T20:51:30.330Z,0.00
2023-03-15T20:56:34.290Z,-0.20
2023-03-15T21:01:36.874Z,-0.10
2023-03-15T21:06:39.400Z,-0.20
2023-03-15T21:11:42.902Z,-0.40
2023-03-15T21:16:45.455Z,-0.40
2023-03-15T21:21:48.176Z,-0.40
2023-03-15T21:26:54.731Z,-0.20
2023-03-15T21:31:58.622Z,-0.20
2023-03-15T21:37:02.511Z,-0.40
2023-03-15T21:42:05.702Z,-1.50
2023-03-15T21:47:08.298Z,-1.40
2023-03-15T21:52:12.433Z,-1.30
2023-03-15T21:57:15.017Z,-1.00
2023-03-15T22:02:17.798Z,-0.90
2023-03-15T22:07:20.494Z,-0.70
2023-03-15T22:12:25.404Z,1.00
2023-03-15T22:17:29.276Z,2.00
2023-03-15T22:22:31.904Z,1.70
2023-03-15T22:27:34.495Z,0.60
2023-03-15T22:32:37.011Z,0.10
2023-03-15T22:37:39.718Z,-0.20
2023-03-15T22:42:43.386Z,-0.20
2023-03-15T22:47:46.345Z,-0.10
2023-03-15T22:52:51.819Z,0.50
2023-03-15T22:57:54.561Z,1.50
2023-03-15T23:02:57.115Z,2.60
2023-03-15T23:07:59.646Z,2.20
2023-03-15T23:13:03.776Z,1.30
2023-03-15T23:18:06.623Z,1.40
2023-03-15T23:23:09.271Z,2.60
2023-03-15T23:28:11.846Z,3.60
2023-03-15T23:33:14.348Z,4.30
2023-03-15T23:38:16.899Z,3.70
2023-03-15T23:43:19.350Z,3.20
2023-03-15T23:48:22.286Z,2.40
2023-03-15T23:53:26.000Z,1.40
2023-03-15T23:58:29.328Z,1.30
